createdAt,value
2018-09-12T00:00:06.005Z,13.1
2018-09-12T00:00:55.790Z,13.1
2018-09-12T00:01:45.843Z,13.3
2018-09-12T00:02:35.060Z,13.3
2018-09-12T00:03:26.235Z,13.4
2018-09-12T00:04:16.288Z,13.4
2018-09-12T00:05:05.799Z,13.3
2018-09-12T00:05:55.890Z,13.3
2018-09-12T00:06:46.531Z,13.2
2018-09-12T00:07:36.331Z,13.2
2018-09-12T00:08:26.345Z,13.1
2018-09-12T00:09:16.662Z,13.1
2018-09-12T00:10:06.752Z,12.9
2018-09-12T00:10:56.539Z,12.9
2018-09-12T00:11:46.904Z,12.8
2018-09-12T00:12:36.651Z,12.8
2018-09-12T00:13:27.022Z,12.8
2018-09-12T00:14:17.349Z,12.8
2018-09-12T00:15:07.111Z,12.8
2018-09-12T00:15:56.655Z,12.7
2018-09-12T00:16:46.972Z,12.8
2018-09-12T00:17:37.322Z,12.8
2018-09-12T00:18:27.181Z,12.7
2018-09-12T00:19:17.162Z,12.7
2018-09-12T00:20:07.494Z,12.8
2018-09-12T00:20:57.820Z,12.7
2018-09-12T00:21:47.633Z,12.7
2018-09-12T00:22:37.704Z,12.7
2018-09-12T00:23:27.509Z,12.7
2018-09-12T00:24:18.076Z,12.6
2018-09-12T00:42:55.210Z,12.6
2018-09-12T00:43:44.418Z,12.6
2018-09-12T00:44:34.773Z,12.5
2018-09-12T00:45:24.822Z,12.5
2018-09-12T00:46:14.585Z,12.4
2018-09-12T00:47:04.966Z,12.5
2018-09-12T00:47:54.912Z,12.4
2018-09-12T00:48:44.500Z,12.5
2018-09-12T00:49:34.835Z,12.5
2018-09-12T00:50:25.210Z,12.4
2018-09-12T00:51:14.983Z,12.4
2018-09-12T00:52:05.028Z,12.4
2018-09-12T00:52:56.127Z,12.4
2018-09-12T00:53:45.422Z,12.4
2018-09-12T00:54:35.498Z,12.4
2018-09-12T00:55:25.580Z,12.4
2018-09-12T00:56:15.611Z,12.4
2018-09-12T00:57:05.402Z,12.3
2018-09-12T00:57:55.754Z,12.3
2018-09-12T00:58:45.232Z,12.3
2018-09-12T00:59:35.857Z,12.3
2018-09-12T01:00:25.646Z,12.3
2018-09-12T01:01:15.762Z,12.3
2018-09-12T01:02:06.087Z,12.3
2018-09-12T01:02:55.888Z,12.2
2018-09-12T01:03:46.452Z,12.2
2018-09-12T01:04:35.963Z,12.1
2018-09-12T01:05:26.029Z,12.1
2018-09-12T01:06:15.781Z,12.2
2018-09-12T01:07:06.161Z,12.3
2018-09-12T01:07:56.479Z,12.3
2018-09-12T01:08:45.988Z,12.3
2018-09-12T01:09:36.061Z,12.3
2018-09-12T01:10:26.099Z,12.3
2018-09-12T01:22:17.105Z,11.6
2018-09-12T01:23:07.151Z,11.6
2018-09-12T01:23:56.938Z,11.6
2018-09-12T01:24:47.293Z,11.6
2018-09-12T01:25:37.340Z,11.6
2018-09-12T01:26:27.098Z,11.6
2018-09-12T01:27:17.482Z,11.6
2018-09-12T01:28:07.487Z,11.6
2018-09-12T01:28:57.884Z,11.6
2018-09-12T01:29:47.063Z,11.6
2018-09-12T01:30:37.712Z,11.6
2018-09-12T01:31:27.495Z,11.6
2018-09-12T01:32:18.120Z,11.6
2018-09-12T01:33:08.468Z,11.6
2018-09-12T01:33:57.974Z,11.5
2018-09-12T01:34:48.310Z,11.6
2018-09-12T01:35:38.341Z,11.6
2018-09-12T01:36:28.442Z,11.4
2018-09-12T01:37:18.215Z,11.4
2018-09-12T01:38:08.827Z,11.4
2018-09-12T01:38:58.322Z,11.4
2018-09-12T01:39:48.686Z,11.4
2018-09-12T01:40:37.877Z,11.4
2018-09-12T01:41:28.819Z,11.4
2018-09-12T01:42:18.861Z,11.4
2018-09-12T01:43:08.041Z,11.4
2018-09-12T01:43:58.731Z,11.4
2018-09-12T01:44:48.774Z,11.4
2018-09-12T01:45:38.804Z,11.3
2018-09-12T01:46:28.589Z,11.3
2018-09-12T01:47:18.654Z,11.3
2018-09-12T01:48:09.282Z,11.2
2018-09-12T01:48:59.055Z,11.2
2018-09-12T01:49:49.156Z,11.1
2018-09-12T01:50:39.206Z,11.1
2018-09-12T01:51:29.293Z,11.2
2018-09-12T01:52:19.333Z,11.3
2018-09-12T01:53:09.681Z,11.3
2018-09-12T01:53:59.438Z,11.4
2018-09-12T01:54:49.216Z,11.5
2018-09-12T01:55:39.590Z,11.6
2018-09-12T01:56:29.915Z,11.6
2018-09-12T01:57:19.720Z,11.6
2018-09-12T01:58:10.376Z,11.6
2018-09-12T01:58:59.778Z,11.6
2018-09-12T01:59:49.603Z,11.6
2018-09-12T02:00:39.647Z,11.6
2018-09-12T02:01:30.291Z,11.6
2018-09-12T02:02:19.773Z,11.6
2018-09-12T02:03:10.425Z,11.6
2018-09-12T02:03:59.910Z,11.5
2018-09-12T02:04:50.265Z,11.4
2018-09-12T02:05:40.644Z,11.4
2018-09-12T02:06:30.687Z,11.3
2018-09-12T02:07:20.737Z,11.3
2018-09-12T02:08:10.535Z,11.3
2018-09-12T02:09:00.095Z,11.3
2018-09-12T02:09:50.610Z,11.2
2018-09-12T02:10:41.000Z,11.2
2018-09-12T02:11:30.752Z,11.2
2018-09-12T02:12:20.817Z,11.2
2018-09-12T02:13:11.190Z,11.1
2018-09-12T02:14:00.667Z,11.1
2018-09-12T02:14:51.327Z,11.3
2018-09-12T02:15:41.078Z,11.3
2018-09-12T02:16:30.857Z,11.4
2018-09-12T02:17:21.197Z,11.6
2018-09-12T02:18:10.685Z,11.6
2018-09-12T02:19:01.917Z,11.6
2018-09-12T02:19:51.614Z,11.6
2018-09-12T02:20:41.723Z,11.6
2018-09-12T02:21:31.805Z,11.7
2018-09-12T02:22:21.289Z,11.8
2018-09-12T02:23:11.321Z,11.7
2018-09-12T02:24:01.647Z,11.8
2018-09-12T02:24:52.014Z,11.8
2018-09-12T02:25:41.827Z,11.7
2018-09-12T02:26:31.932Z,11.6
2018-09-12T02:27:21.776Z,11.6
2018-09-12T02:28:12.068Z,11.6
2018-09-12T02:29:02.855Z,11.5
2018-09-12T02:29:51.878Z,11.4
2018-09-12T02:30:42.204Z,11.4
2018-09-12T02:31:32.299Z,11.4
2018-09-12T02:32:22.345Z,11.4
2018-09-12T02:33:12.681Z,11.6
2018-09-12T02:34:02.365Z,11.6
2018-09-12T02:34:52.737Z,11.6
2018-09-12T02:35:42.909Z,11.7
2018-09-12T02:36:32.908Z,11.6
2018-09-12T02:37:22.686Z,11.6
2018-09-12T02:38:13.044Z,11.6
2018-09-12T02:39:03.114Z,11.6
2018-09-12T02:39:52.594Z,11.5
2018-09-12T02:40:43.231Z,11.6
2018-09-12T02:41:33.283Z,11.6
2018-09-12T02:42:22.786Z,11.6
2018-09-12T02:43:12.546Z,11.5
2018-09-12T02:44:02.927Z,11.6
2018-09-12T02:44:53.348Z,11.6
2018-09-12T02:45:43.609Z,11.5
2018-09-12T02:46:33.458Z,11.5
2018-09-12T02:47:23.435Z,11.4
2018-09-12T02:48:13.537Z,11.4
2018-09-12T02:49:03.846Z,11.4
2018-09-12T02:49:53.919Z,11.5
2018-09-12T02:50:43.696Z,11.4
2018-09-12T02:51:34.038Z,11.4
2018-09-12T02:52:24.117Z,11.3
2018-09-12T02:53:14.145Z,11.3
2018-09-12T02:54:04.207Z,11.4
2018-09-12T02:54:54.593Z,11.4
2018-09-12T02:55:44.328Z,11.4
2018-09-12T02:56:33.537Z,11.3
2018-09-12T02:57:24.167Z,11.3
2018-09-12T02:58:14.515Z,11.3
2018-09-12T02:59:04.310Z,11.3
2018-09-12T02:59:54.085Z,11.3
2018-09-12T03:00:44.722Z,11.3
2018-09-12T03:01:34.481Z,11.3
2018-09-12T03:02:23.987Z,11.3
2018-09-12T03:03:14.625Z,11.3
2018-09-12T03:04:04.663Z,11.1
2018-09-12T03:04:55.268Z,10.9
2018-09-12T03:05:45.039Z,10.9
2018-09-12T03:06:34.347Z,10.8
2018-09-12T03:07:24.916Z,10.8
2018-09-12T03:08:14.969Z,10.9
2018-09-12T03:09:05.323Z,10.9
2018-09-12T03:09:54.832Z,10.8
2018-09-12T03:10:45.231Z,10.8
2018-09-12T03:11:35.226Z,10.8
2018-09-12T03:12:25.291Z,10.8
2018-09-12T03:13:15.416Z,10.8
2018-09-12T03:14:05.751Z,10.9
2018-09-12T03:14:55.499Z,10.9
2018-09-12T03:15:45.539Z,11.1
2018-09-12T03:16:35.601Z,11.1
2018-09-12T03:17:25.376Z,11.1
2018-09-12T03:18:16.011Z,11.1
2018-09-12T03:19:05.541Z,11
2018-09-12T03:19:56.176Z,11
2018-09-12T03:20:47.449Z,10.9
2018-09-12T03:21:35.988Z,10.9
2018-09-12T03:22:26.341Z,10.9
2018-09-12T03:23:16.408Z,10.8
2018-09-12T03:24:05.909Z,10.8
2018-09-12T03:24:56.226Z,10.8
2018-09-12T03:25:46.969Z,10.8
2018-09-12T03:26:36.356Z,10.7
2018-09-12T03:27:26.433Z,10.7
2018-09-12T03:28:16.484Z,10.6
2018-09-12T03:29:06.293Z,10.6
2018-09-12T03:29:56.050Z,10.5
2018-09-12T03:30:46.709Z,10.5
2018-09-12T03:31:37.187Z,10.5
2018-09-12T03:32:26.920Z,10.4
2018-09-12T03:33:16.840Z,10.4
2018-09-12T03:34:07.206Z,10.4
2018-09-12T03:34:56.976Z,10.5
2018-09-12T03:35:47.300Z,10.6
2018-09-12T03:36:37.401Z,10.6
2018-09-12T03:37:27.158Z,10.7
2018-09-12T03:38:17.530Z,10.8
2018-09-12T03:39:07.293Z,10.8
2018-09-12T03:39:57.616Z,10.8
2018-09-12T03:40:47.765Z,10.7
2018-09-12T03:41:37.480Z,10.6
2018-09-12T03:42:27.815Z,10.6
2018-09-12T03:43:17.058Z,10.5
2018-09-12T03:44:07.478Z,10.4
2018-09-12T03:44:58.025Z,10.4
2018-09-12T03:45:47.215Z,10.4
2018-09-12T03:46:38.158Z,10.4
2018-09-12T03:47:27.999Z,10.4
2018-09-12T03:48:17.977Z,10.4
2018-09-12T03:49:08.052Z,10.4
2018-09-12T03:49:58.380Z,10.4
2018-09-12T03:50:48.463Z,10.4
2018-09-12T03:51:38.554Z,10.4
2018-09-12T03:52:28.583Z,10.4
2018-09-12T03:53:18.128Z,10.4
2018-09-12T03:54:08.771Z,10.3
2018-09-12T03:54:58.185Z,10.3
2018-09-12T03:55:48.233Z,10.3
2018-09-12T03:56:38.017Z,10.3
2018-09-12T03:57:28.352Z,10.3
2018-09-12T03:58:18.437Z,10.4
2018-09-12T03:59:09.088Z,10.3
2018-09-12T03:59:58.844Z,10.4
2018-09-12T04:00:49.195Z,10.5
2018-09-12T04:01:38.973Z,10.5
2018-09-12T04:02:29.067Z,10.6
2018-09-12T04:03:19.386Z,10.6
2018-09-12T04:04:08.860Z,10.6
2018-09-12T04:04:58.929Z,10.6
2018-09-12T04:05:49.305Z,10.6
2018-09-12T04:06:39.376Z,10.6
2018-09-12T04:07:29.677Z,10.5
2018-09-12T04:08:19.509Z,10.5
2018-09-12T04:09:09.277Z,10.4
2018-09-12T04:09:59.888Z,10.4
2018-09-12T04:10:49.669Z,10.4
2018-09-12T04:11:39.706Z,10.4
2018-09-12T04:12:29.506Z,10.4
2018-09-12T04:13:19.543Z,10.5
2018-09-12T04:14:09.598Z,10.6
2018-09-12T04:14:59.676Z,10.6
2018-09-12T04:15:50.037Z,10.6
2018-09-12T04:16:40.334Z,10.6
2018-09-12T04:17:30.148Z,10.7
2018-09-12T04:18:20.193Z,10.8
2018-09-12T04:19:10.301Z,10.8
2018-09-12T04:20:00.055Z,10.8
2018-09-12T04:20:50.415Z,10.8
2018-09-12T04:21:40.760Z,10.8
2018-09-12T04:22:30.568Z,10.9
2018-09-12T04:23:20.291Z,10.9
2018-09-12T04:24:11.121Z,10.9
2018-09-12T04:25:00.133Z,10.9
2018-09-12T04:25:51.046Z,10.8
2018-09-12T04:26:41.664Z,10.8
2018-09-12T04:27:30.583Z,10.8
2018-09-12T04:28:21.203Z,10.9
2018-09-12T04:29:11.001Z,10.8
2018-09-12T04:30:01.370Z,10.9
2018-09-12T04:30:51.432Z,10.9
2018-09-12T04:31:41.495Z,10.9
2018-09-12T04:32:31.520Z,11
2018-09-12T04:33:21.028Z,11.1
2018-09-12T04:34:11.695Z,11.1
2018-09-12T04:35:01.438Z,11.2
2018-09-12T04:35:51.530Z,11.2
2018-09-12T04:36:41.588Z,11.1
2018-09-12T04:37:31.646Z,11
2018-09-12T04:38:22.102Z,10.9
2018-09-12T04:39:11.813Z,10.9
2018-09-12T04:40:02.066Z,10.9
2018-09-12T04:40:51.935Z,11
2018-09-12T04:41:42.234Z,11
2018-09-12T04:42:32.438Z,11
2018-09-12T04:43:22.462Z,11
2018-09-12T04:44:11.545Z,11.1
2018-09-12T04:45:02.555Z,11
2018-09-12T04:45:51.963Z,11
2018-09-12T04:46:42.593Z,11
2018-09-12T04:47:32.361Z,11.1
2018-09-12T04:48:22.710Z,11.1
2018-09-12T04:49:12.508Z,11.1
2018-09-12T04:50:02.874Z,11.1
2018-09-12T04:50:52.621Z,11.1
2018-09-12T04:51:43.021Z,11.3
2018-09-12T04:52:32.448Z,11.3
2018-09-12T04:53:23.091Z,11.4
2018-09-12T04:54:12.855Z,11.4
2018-09-12T04:55:02.939Z,11.4
2018-09-12T04:55:52.698Z,11.3
2018-09-12T04:56:43.059Z,11.3
2018-09-12T04:57:33.123Z,11.3
2018-09-12T04:58:23.529Z,11.4
2018-09-12T04:59:13.528Z,11.4
2018-09-12T05:00:03.028Z,11.4
2018-09-12T05:00:53.640Z,11.3
2018-09-12T05:17:48.465Z,12.1
2018-09-12T05:18:38.208Z,12.3
2018-09-12T05:19:28.513Z,12.4
2018-09-12T05:20:18.602Z,12.6
2018-09-12T05:21:08.379Z,12.6
2018-09-12T05:21:59.004Z,12.7
2018-09-12T05:22:49.159Z,12.8
2018-09-12T05:23:39.127Z,12.8
2018-09-12T05:24:29.197Z,12.8
2018-09-12T05:25:19.251Z,12.9
2018-09-12T05:26:09.298Z,12.9
2018-09-12T05:41:10.516Z,13.8
2018-09-12T05:41:21.439Z,13.9
2018-09-12T05:42:11.753Z,13.9
2018-09-12T05:43:01.269Z,14.1
2018-09-12T05:43:51.613Z,14.1
2018-09-12T05:44:41.985Z,14.1
2018-09-12T05:45:31.716Z,14.2
2018-09-12T05:46:21.658Z,14.3
2018-09-12T05:47:12.132Z,14.3
2018-09-12T05:48:01.620Z,14.6
2018-09-12T05:48:51.700Z,14.7
2018-09-12T05:49:42.079Z,14.6
2018-09-12T05:50:32.103Z,14.7
2018-09-12T05:51:22.550Z,14.9
2018-09-12T05:52:12.237Z,14.9
2018-09-12T05:53:02.585Z,15
2018-09-12T05:53:52.343Z,15
2018-09-12T05:54:42.711Z,14.9
2018-09-12T05:55:32.492Z,14.8
2018-09-12T05:56:22.795Z,14.9
2018-09-12T05:57:12.889Z,15.1
2018-09-12T05:58:01.795Z,15.1
2018-09-12T05:58:52.725Z,15.1
2018-09-12T05:59:42.787Z,15.2
2018-09-12T06:00:33.144Z,15.3
2018-09-12T06:01:23.206Z,15.3
2018-09-12T06:02:12.981Z,15.3
2018-09-12T06:03:03.063Z,15.3
2018-09-12T06:03:53.407Z,15.5
2018-09-12T06:04:43.159Z,15.6
2018-09-12T06:05:33.232Z,15.7
2018-09-12T06:06:23.525Z,15.8
2018-09-12T06:07:14.841Z,15.9
2018-09-12T06:08:03.400Z,16.1
2018-09-12T06:08:52.912Z,16.3
2018-09-12T06:09:43.842Z,16.3
2018-09-12T06:10:33.609Z,16.4
2018-09-12T06:11:23.934Z,16.4
2018-09-12T06:12:13.719Z,16.6
2018-09-12T06:13:03.774Z,16.8
2018-09-12T06:13:54.443Z,16.8
2018-09-12T06:14:43.910Z,16.7
2018-09-12T06:15:33.974Z,16.5
2018-09-12T06:16:24.339Z,16.5
2018-09-12T06:17:14.409Z,16.6
2018-09-12T06:18:04.457Z,16.8
2018-09-12T06:18:53.943Z,16.8
2018-09-12T06:19:44.604Z,16.8
2018-09-12T06:20:34.662Z,16.9
2018-09-12T06:21:24.119Z,16.9
2018-09-12T06:22:14.481Z,16.9
2018-09-12T06:23:04.833Z,17.1
2018-09-12T06:23:54.088Z,17.3
2018-09-12T06:24:44.334Z,17.5
2018-09-12T06:25:34.723Z,17.5
2018-09-12T06:26:25.395Z,17.5
2018-09-12T06:27:15.381Z,17.4
2018-09-12T06:28:04.909Z,17.3
2018-09-12T06:28:55.257Z,17.2
2018-09-12T06:29:44.848Z,17.4
2018-09-12T06:30:35.117Z,17.8
2018-09-12T06:31:24.883Z,17.9
2018-09-12T06:32:15.241Z,18
2018-09-12T06:33:05.012Z,18.1
2018-09-12T06:33:55.663Z,18
2018-09-12T06:34:45.950Z,18
2018-09-12T06:35:35.773Z,18.1
2018-09-12T06:36:24.970Z,18.1
2018-09-12T06:37:15.115Z,18
2018-09-12T06:38:05.395Z,18
2018-09-12T06:38:55.758Z,18.2
2018-09-12T06:39:45.782Z,18.4
2018-09-12T06:40:35.922Z,18.4
2018-09-12T06:41:25.916Z,18.5
2018-09-12T06:42:16.271Z,18.6
2018-09-12T06:43:06.329Z,18.4
2018-09-12T06:43:56.112Z,18.3
2018-09-12T06:44:46.670Z,18.2
2018-09-12T06:45:36.507Z,18.4
2018-09-12T06:46:26.606Z,18.6
2018-09-12T06:47:16.359Z,18.6
2018-09-12T06:48:06.428Z,18.6
2018-09-12T06:48:56.496Z,18.4
2018-09-12T06:49:45.976Z,18.4
2018-09-12T06:50:36.613Z,18.4
2018-09-12T06:51:26.083Z,18.8
2018-09-12T06:52:16.453Z,19.1
2018-09-12T06:53:06.513Z,19.1
2018-09-12T06:53:56.806Z,19.3
2018-09-12T06:54:47.842Z,18.8
2018-09-12T06:55:37.313Z,18.6
2018-09-12T06:56:27.052Z,19
2018-09-12T06:57:17.108Z,19.3
2018-09-12T06:58:06.888Z,19.4
2018-09-12T06:58:57.259Z,19.4
2018-09-12T06:59:47.318Z,19.8
2018-09-12T07:00:37.311Z,19.8
2018-09-12T07:01:27.764Z,19.8
2018-09-12T07:02:18.103Z,19.7
2018-09-12T07:03:07.820Z,19.8
2018-09-12T07:03:57.326Z,19.9
2018-09-12T07:04:47.405Z,19.6
2018-09-12T07:05:37.760Z,19.4
2018-09-12T07:06:27.785Z,19.4
2018-09-12T07:07:18.440Z,19.2
2018-09-12T07:08:08.299Z,19.3
2018-09-12T07:08:57.706Z,19.7
2018-09-12T07:09:48.043Z,19.9
2018-09-12T07:10:37.814Z,19.8
2018-09-12T07:11:28.190Z,19.9
2018-09-12T07:12:18.561Z,20.2
2018-09-12T07:13:08.622Z,20.1
2018-09-12T07:13:58.372Z,19.9
2018-09-12T07:14:48.507Z,19.8
2018-09-12T07:15:38.209Z,19.8
2018-09-12T07:16:28.552Z,20.1
2018-09-12T07:17:18.592Z,20.6
2018-09-12T07:18:08.974Z,20.8
2018-09-12T07:18:58.762Z,20.8
2018-09-12T07:19:48.536Z,20.4
2018-09-12T07:20:38.617Z,20.1
2018-09-12T07:21:28.922Z,20.1
2018-09-12T07:22:19.321Z,20.4
2018-09-12T07:23:08.862Z,20.4
2018-09-12T07:23:59.124Z,20.4
2018-09-12T07:24:49.157Z,20.7
2018-09-12T07:25:38.965Z,20.4
2018-09-12T07:26:29.295Z,20.6
2018-09-12T07:27:19.071Z,20.6
2018-09-12T07:28:09.145Z,20.9
2018-09-12T07:29:49.570Z,21.4
2018-09-12T07:30:40.152Z,21.5
2018-09-12T07:31:29.473Z,21.9
2018-09-12T07:32:19.477Z,21.7
2018-09-12T07:33:10.101Z,21.8
2018-09-12T07:34:00.182Z,21.6
2018-09-12T07:34:49.931Z,21.3
2018-09-12T07:35:40.067Z,21.3
2018-09-12T07:36:29.878Z,21.7
2018-09-12T07:37:20.132Z,21.8
2018-09-12T07:38:09.900Z,21.8
2018-09-12T07:38:59.970Z,21.7
2018-09-12T07:39:50.323Z,21.9
2018-09-12T07:40:40.953Z,21.8
2018-09-12T07:41:30.982Z,21.6
2018-09-12T07:42:20.240Z,21.8
2018-09-12T07:43:10.597Z,21.6
2018-09-12T07:44:00.641Z,21.9
2018-09-12T07:44:50.703Z,21.9
2018-09-12T07:45:40.755Z,22.1
2018-09-12T07:46:31.095Z,22.4
2018-09-12T07:47:21.231Z,22.6
2018-09-12T07:48:11.245Z,22.9
2018-09-12T07:49:01.603Z,22.9
2018-09-12T07:49:50.795Z,23
2018-09-12T07:50:41.435Z,23.4
2018-09-12T07:51:31.560Z,23.6
2018-09-12T07:52:21.284Z,23.8
2018-09-12T07:53:11.608Z,23.4
2018-09-12T07:54:01.664Z,23.3
2018-09-12T07:54:51.472Z,23.1
2018-09-12T07:55:41.230Z,23
2018-09-12T07:56:32.222Z,23.2
2018-09-12T07:57:21.611Z,22.8
2018-09-12T07:58:12.038Z,22.4
2018-09-12T07:59:02.305Z,22.7
2018-09-12T07:59:51.598Z,22.7
2018-09-12T08:00:41.475Z,22.6
2018-09-12T08:01:31.955Z,22.3
2018-09-12T08:02:21.989Z,22.4
2018-09-12T08:03:12.077Z,22.4
2018-09-12T08:04:02.414Z,22.7
2018-09-12T08:04:52.219Z,22.8
2018-09-12T08:05:42.597Z,22.9
2018-09-12T08:06:32.633Z,23
2018-09-12T08:07:22.425Z,23.6
2018-09-12T08:08:12.760Z,24.3
2018-09-12T08:09:02.787Z,24.4
2018-09-12T08:09:52.005Z,24.5
2018-09-12T08:10:42.654Z,24.4
2018-09-12T08:11:32.746Z,24.6
2018-09-12T08:12:23.335Z,24.8
2018-09-12T08:13:12.869Z,24.9
2018-09-12T08:14:02.879Z,24.8
2018-09-12T08:14:53.337Z,24.9
2018-09-12T08:15:42.764Z,24.8
2018-09-12T08:16:33.367Z,24.4
2018-09-12T08:17:23.462Z,24.1
2018-09-12T08:18:12.934Z,24.1
2018-09-12T08:19:03.575Z,24.2
2018-09-12T08:19:53.699Z,24.1
2018-09-12T08:20:43.426Z,24.3
2018-09-12T08:21:33.779Z,24
2018-09-12T08:22:23.801Z,24.1
2018-09-12T08:23:13.314Z,24.2
2018-09-12T08:24:03.401Z,23.4
2018-09-12T08:24:53.174Z,23.3
2018-09-12T08:25:44.069Z,23.1
2018-09-12T08:26:34.192Z,23.4
2018-09-12T08:27:23.346Z,23.2
2018-09-12T08:28:13.688Z,23.3
2018-09-12T08:29:04.327Z,23.4
2018-09-12T08:29:53.819Z,24.4
2018-09-12T08:30:44.455Z,24.3
2018-09-12T08:31:34.538Z,23.9
2018-09-12T08:32:24.306Z,24.3
2018-09-12T08:33:15.065Z,24.4
2018-09-12T08:34:04.453Z,24.8
2018-09-12T08:34:54.488Z,25
2018-09-12T08:35:44.865Z,25.3
2018-09-12T08:36:35.900Z,25.4
2018-09-12T08:37:25.027Z,25.6
2018-09-12T08:38:15.027Z,25.5
2018-09-12T08:39:04.525Z,25.8
2018-09-12T08:39:55.136Z,25.9
2018-09-12T08:40:44.650Z,26.1
2018-09-12T08:41:34.722Z,25.9
2018-09-12T08:42:25.329Z,25.9
2018-09-12T08:43:14.567Z,26.4
2018-09-12T08:44:04.929Z,26.3
2018-09-12T08:44:55.212Z,25.8
2018-09-12T08:45:44.832Z,25.4
2018-09-12T08:46:35.097Z,25.4
2018-09-12T08:47:25.442Z,25.5
2018-09-12T08:48:15.512Z,25.7
2018-09-12T08:49:05.294Z,25.7
2018-09-12T08:49:55.344Z,25.8
2018-09-12T08:50:45.704Z,25
2018-09-12T08:51:35.746Z,24.9
2018-09-12T08:52:25.796Z,25.3
2018-09-12T08:53:15.888Z,25.9
2018-09-12T08:54:05.959Z,26
2018-09-12T08:54:55.469Z,25.9
2018-09-12T08:55:46.432Z,26.4
2018-09-12T08:56:36.637Z,26.9
2018-09-12T08:57:25.915Z,26.6
2018-09-12T08:58:16.561Z,26.6
2018-09-12T08:59:06.365Z,27
2018-09-12T08:59:56.398Z,27.2
2018-09-12T09:00:47.028Z,27.4
2018-09-12T09:01:37.458Z,27.3
2018-09-12T09:02:26.301Z,27.6
2018-09-12T09:03:17.178Z,27.6
2018-09-12T09:04:07.103Z,27.8
2018-09-12T09:04:56.777Z,27.9
2018-09-12T09:05:47.121Z,27.4
2018-09-12T09:06:37.436Z,26.1
2018-09-12T09:07:26.978Z,25.3
2018-09-12T09:08:17.025Z,24.8
2018-09-12T09:09:07.371Z,24.3
2018-09-12T09:09:56.861Z,24.1
2018-09-12T09:10:47.257Z,24.4
2018-09-12T09:11:37.337Z,25.1
2018-09-12T09:12:27.033Z,25.9
2018-09-12T09:13:17.404Z,26.1
2018-09-12T09:14:07.468Z,26.7
2018-09-12T09:14:57.525Z,26.9
2018-09-12T09:15:47.296Z,26.6
2018-09-12T09:16:37.665Z,26.7
2018-09-12T09:17:28.591Z,26.5
2018-09-12T09:18:17.793Z,26.1
2018-09-12T09:19:07.562Z,25.6
2018-09-12T09:19:58.185Z,25.6
2018-09-12T09:20:48.247Z,26
2018-09-12T09:21:37.752Z,26.3
2018-09-12T09:22:28.401Z,26.4
2018-09-12T09:23:18.165Z,26.4
2018-09-12T09:39:41.274Z,27.2
2018-09-12T09:40:30.771Z,25.9
2018-09-12T09:41:20.556Z,25.5
2018-09-12T09:42:10.601Z,25.8
2018-09-12T09:43:00.693Z,26.4
2018-09-12T09:43:50.804Z,27.3
2018-09-12T09:44:40.834Z,27.4
2018-09-12T09:45:30.972Z,27.4
2018-09-12T09:46:20.935Z,27.6
2018-09-12T09:47:10.703Z,27.3
2018-09-12T09:48:01.462Z,26.4
2018-09-12T09:48:51.400Z,25.6
2018-09-12T09:49:41.208Z,25.4
2018-09-12T09:50:31.238Z,26.3
2018-09-12T09:51:21.303Z,26.4
2018-09-12T09:52:11.364Z,26.9
2018-09-12T09:53:01.433Z,27.3
2018-09-12T09:53:51.501Z,27.4
2018-09-12T09:55:31.587Z,28.4
2018-09-12T09:56:21.118Z,28.7
2018-09-12T09:57:11.166Z,28.7
2018-09-12T09:58:01.803Z,28.9
2018-09-12T09:58:51.891Z,28.6
2018-09-12T09:59:42.212Z,28.9
2018-09-12T10:00:32.580Z,29
2018-09-12T10:01:22.065Z,29
2018-09-12T10:02:12.110Z,29.3
2018-09-12T10:03:01.885Z,29.6
2018-09-12T10:03:51.972Z,29.8
2018-09-12T10:04:42.610Z,29.4
2018-09-12T10:05:32.347Z,28.8
2018-09-12T10:06:22.478Z,28.6
2018-09-12T10:07:12.778Z,28.8
2018-09-12T10:08:02.841Z,29.1
2018-09-12T10:08:52.619Z,29.2
2018-09-12T10:09:42.695Z,29.2
2018-09-12T10:10:33.001Z,29.4
2018-09-12T10:11:22.536Z,28.8
2018-09-12T10:12:12.611Z,28.5
2018-09-12T10:13:02.709Z,28.4
2018-09-12T10:13:53.013Z,27.1
2018-09-12T10:14:43.086Z,27
2018-09-12T10:15:33.128Z,27.4
2018-09-12T10:17:13.549Z,28.1
2018-09-12T10:18:03.051Z,27.7
2018-09-12T10:18:53.106Z,27.4
2018-09-12T10:19:43.741Z,26.4
2018-09-12T10:20:34.301Z,26.5
2018-09-12T10:21:23.885Z,26.8
2018-09-12T10:22:13.648Z,27.3
2018-09-12T10:23:03.990Z,27.8
2018-09-12T10:23:54.056Z,28.2
2018-09-12T10:24:43.238Z,28.3
2018-09-12T10:25:34.395Z,27.1
2018-09-12T10:26:23.695Z,27.2
2018-09-12T10:27:13.727Z,27.1
2018-09-12T10:28:04.084Z,26.8
2018-09-12T10:28:53.868Z,26.8
2018-09-12T10:29:43.647Z,27.6
2018-09-12T10:30:34.875Z,27.4
2018-09-12T10:31:24.048Z,27.3
2018-09-12T10:32:14.697Z,27.1
2018-09-12T10:33:04.477Z,27.4
2018-09-12T10:33:54.802Z,27
2018-09-12T10:34:44.582Z,27.5
2018-09-12T10:35:34.620Z,26.6
2018-09-12T10:36:24.734Z,26.5
2018-09-12T10:37:15.074Z,26.8
2018-09-12T10:38:04.847Z,26.5
2018-09-12T10:38:54.924Z,26.4
2018-09-12T10:39:45.259Z,26.7
2018-09-12T10:40:35.050Z,26.6
2018-09-12T10:41:25.099Z,26.8
2018-09-12T10:42:15.429Z,27
2018-09-12T10:43:05.234Z,26.8
2018-09-12T10:43:55.281Z,26.9
2018-09-12T10:44:45.072Z,28
2018-09-12T10:45:35.426Z,28.4
2018-09-12T10:46:25.494Z,29.2
2018-09-12T10:47:15.258Z,30
2018-09-12T10:48:05.330Z,30.3
2018-09-12T10:48:55.676Z,30.3
2018-09-12T10:49:45.461Z,30.4
2018-09-12T10:50:36.048Z,29.9
2018-09-12T10:51:25.568Z,29.4
2018-09-12T10:52:16.205Z,29.5
2018-09-12T10:53:05.689Z,29.8
2018-09-12T10:53:56.065Z,29.1
2018-09-12T10:54:45.831Z,28.1
2018-09-12T10:55:36.472Z,27.1
2018-09-12T10:56:25.961Z,27
2018-09-12T10:57:16.315Z,27.2
2018-09-12T10:58:06.084Z,27.2
2018-09-12T10:58:56.584Z,26.6
2018-09-12T10:59:46.779Z,26.9
2018-09-12T11:00:36.268Z,27.3
2018-09-12T11:01:26.041Z,28.1
2018-09-12T11:02:16.683Z,28.3
2018-09-12T11:03:06.458Z,28.3
2018-09-12T11:03:56.823Z,27.5
2018-09-12T11:04:47.153Z,27.4
2018-09-12T11:05:36.638Z,27.1
2018-09-12T11:06:27.269Z,27.2
2018-09-12T11:07:16.782Z,26.8
2018-09-12T11:08:06.840Z,26.4
2018-09-12T11:08:57.195Z,26.8
2018-09-12T11:09:47.538Z,27.4
2018-09-12T11:10:37.355Z,27.4
2018-09-12T11:11:27.390Z,27.3
2018-09-12T11:12:17.691Z,27.4
2018-09-12T11:13:07.479Z,27.1
2018-09-12T11:13:57.575Z,27
2018-09-12T11:14:47.350Z,26.5
2018-09-12T11:15:37.700Z,27.1
2018-09-12T11:16:28.049Z,27.2
2018-09-12T11:17:18.145Z,26.8
2018-09-12T11:18:07.847Z,26.8
2018-09-12T11:18:57.972Z,27.3
2018-09-12T11:19:48.304Z,27.3
2018-09-12T11:20:37.492Z,27.6
2018-09-12T11:21:27.854Z,28.1
2018-09-12T11:22:18.500Z,28.2
2018-09-12T11:23:08.550Z,28.1
2018-09-12T11:23:58.576Z,28.1
2018-09-12T11:24:48.397Z,28.1
2018-09-12T11:25:38.173Z,28.5
2018-09-12T11:26:28.514Z,28.6
2018-09-12T11:27:18.294Z,28.6
2018-09-12T11:28:08.344Z,28.6
2018-09-12T11:28:58.144Z,29
2018-09-12T11:29:48.771Z,29.2
2018-09-12T11:30:38.552Z,29.6
2018-09-12T11:31:28.606Z,29.6
2018-09-12T11:32:19.504Z,29.9
2018-09-12T11:33:08.746Z,30
2018-09-12T11:33:59.362Z,30.1
2018-09-12T11:34:48.578Z,29.6
2018-09-12T11:35:39.221Z,28.7
2018-09-12T11:36:29.562Z,28.6
2018-09-12T11:37:19.116Z,28.1
2018-09-12T11:38:09.702Z,27.9
2018-09-12T11:38:59.759Z,27.8
2018-09-12T11:39:49.826Z,27.6
2018-09-12T11:40:39.348Z,28.6
2018-09-12T11:41:29.684Z,29.3
2018-09-12T11:42:19.731Z,29.2
2018-09-12T11:43:10.083Z,28.3
2018-09-12T11:44:00.165Z,27.7
2018-09-12T11:45:39.980Z,27.9
2018-09-12T11:46:29.483Z,27.9
2018-09-12T11:47:20.096Z,27.7
2018-09-12T11:48:10.460Z,27.7
2018-09-12T11:49:00.388Z,27.8
2018-09-12T11:49:50.298Z,27.8
2018-09-12T11:50:40.890Z,27.3
2018-09-12T11:51:30.723Z,26.8
2018-09-12T11:52:20.225Z,26.8
2018-09-12T11:53:10.847Z,27.1
2018-09-12T11:54:00.310Z,27.4
2018-09-12T11:55:40.808Z,27.6
2018-09-12T11:56:30.517Z,27.6
2018-09-12T11:57:20.862Z,27.8
2018-09-12T11:58:10.356Z,27.7
2018-09-12T11:59:00.710Z,28.1
2018-09-12T11:59:51.055Z,28.3
2018-09-12T12:00:40.827Z,28.4
2018-09-12T12:01:30.900Z,28.2
2018-09-12T12:02:21.751Z,28.4
2018-09-12T12:03:11.019Z,28.3
2018-09-12T12:04:01.622Z,28.4
2018-09-12T12:04:51.147Z,28.4
2018-09-12T12:05:41.204Z,28.3
2018-09-12T12:06:31.840Z,28.6
2018-09-12T12:07:21.612Z,28.6
2018-09-12T12:08:11.677Z,28.8
2018-09-12T12:09:01.764Z,28.8
2018-09-12T12:09:51.906Z,28.4
2018-09-12T12:10:41.884Z,27.5
2018-09-12T12:11:32.208Z,27.4
2018-09-12T12:12:22.299Z,27.3
2018-09-12T12:13:12.603Z,27.6
2018-09-12T12:14:02.124Z,28.3
2018-09-12T12:14:51.914Z,28.6
2018-09-12T12:15:42.541Z,28.1
2018-09-12T12:16:32.522Z,28.2
2018-09-12T12:17:22.653Z,28.4
2018-09-12T12:18:13.056Z,28.4
2018-09-12T12:19:02.761Z,27.6
2018-09-12T12:19:52.864Z,27.6
2018-09-12T12:20:42.686Z,27.4
2018-09-12T12:21:32.693Z,26.8
2018-09-12T12:22:23.039Z,25.9
2018-09-12T12:23:13.092Z,26.3
2018-09-12T12:24:03.173Z,26.8
2018-09-12T12:24:53.229Z,26.9
2018-09-12T12:25:43.318Z,27.2
2018-09-12T12:26:33.374Z,27